KJAS/JAS METAR and TAF weather

Enter ICAO airport designator
Station Type Date Time Source
KJAS METAR 2019/12/08 03:55 UTC NOAA

KJAS 080355Z AUTO 00000KT 5SM BR CLR 08/08 A3022 RMK AO2 T00800078


Station Type Date Time Source
KJAS Decoded METAR 2019/12/08 03:55 UTC NOAA

Jasper, Jasper County-Bell Field Airport, TX, United States (KJAS) 30-53-08N 094-02-05W
Dec 07, 2019 - 10:55 PM EST / 2019.12.08 0355 UTC
Wind: Calm:0
Visibility: 5 mile(s):0
Sky conditions: clear
Weather: mist
Temperature: 46.4 F (8.0 C)
Dew Point: 46.0 F (7.8 C)
Relative Humidity: 98%
Pressure (altimeter): 30.22 in. Hg (1023 hPa)
ob: KJAS 080355Z AUTO 00000KT 5SM BR CLR 08/08 A3022 RMK AO2 T00800078
cycle: 4

Station Type Date Time Source
KJAS TAF UTC NOAA

Error!

Example: see airport list